Time;durP1;ratioP1;P1;durP2;ratioP2;P2;SDS_P1;SDS_P2;PMS_P1;PMS_P2;Temp;Humidity;BMP_temperature;BMP_pressure;BME280_temperature;BME280_humidity;BME280_pressure;Samples;Min_cycle;Max_cycle;Signal;HPM_P1;HPM_P2
2023/12/14 00:01:54;;;;;;;;;;;5.80;36.10;;;;;;4997246;28;19920;-76
2023/12/14 00:04:48;;;;;;;;;;;5.70;36.00;;;;;;4997572;28;19960;-81
2023/12/14 00:07:18;;;;;;;;;;;5.70;36.00;;;;;;4996477;28;19914;-81
2023/12/14 00:09:43;;;;;;;;;;;5.70;36.00;;;;;;4996803;28;19909;-81
2023/12/14 00:12:09;;;;;;;;;;;5.60;36.00;;;;;;4978418;28;19918;-81
2023/12/14 00:20:42;;;;;;;;;;;5.50;31.60;;;;;;4984763;28;19921;-81
2023/12/14 00:23:18;;;;;;;;;;;5.40;29.90;;;;;;5010471;28;19945;-82
2023/12/14 00:25:48;;;;;;;;;;;5.40;29.50;;;;;;5000659;28;19914;-81
2023/12/14 00:28:18;;;;;;;;;;;5.30;29.00;;;;;;4978927;28;21414;-81
2023/12/14 00:30:48;;;;;;;;;;;;;;;;;;4996005;28;19917;-81
2023/12/14 00:36:48;;;;;;;;;;;5.10;29.20;;;;;;5000055;28;20324;-81
2023/12/14 00:39:18;;;;;;;;;;;5.10;35.40;;;;;;4996180;28;19956;-81
2023/12/14 00:41:48;;;;;;;;;;;5.10;35.50;;;;;;4997584;28;19953;-81
2023/12/14 00:44:18;;;;;;;;;;;5.00;35.50;;;;;;4995951;28;19914;-81
2023/12/14 00:46:48;;;;;;;;;;;;;;;;;;4996077;28;19910;-81
2023/12/14 00:49:19;;;;;;;;;;;5.00;35.50;;;;;;4995816;28;19909;-81
2023/12/14 00:51:44;;;;;;;;;;;5.10;35.50;;;;;;4999433;28;19909;-76
2023/12/14 00:54:30;;;;;;;;;;;5.10;35.50;;;;;;4984962;28;19957;-75
2023/12/14 00:57:06;;;;;;;;;;;5.00;35.50;;;;;;5008380;28;20016;-76
2023/12/14 00:59:48;;;;;;;;;;;5.10;35.50;;;;;;4987288;28;19909;-75
2023/12/14 01:02:18;;;;;;;;;;;;;;;;;;4994541;28;19917;-76
2023/12/14 01:04:48;;;;;;;;;;;5.10;35.50;;;;;;5006473;28;19909;-76
2023/12/14 01:07:30;;;;;;;;;;;5.10;35.50;;;;;;5011280;28;19917;-76
2023/12/14 01:10:06;;;;;;;;;;;5.10;35.50;;;;;;5011138;28;19917;-76
2023/12/14 01:12:32;;;;;;;;;;;5.10;35.50;;;;;;5000290;28;19926;-75
2023/12/14 01:15:00;;;;;;;;;;;5.00;35.50;;;;;;4995669;28;20369;-76
2023/12/14 01:17:48;;;;;;;;;;;5.00;35.50;;;;;;4991436;28;19914;-76
2023/12/14 01:20:18;;;;;;;;;;;5.00;35.50;;;;;;4980840;28;19914;-81
2023/12/14 01:22:48;;;;;;;;;;;5.00;35.50;;;;;;4975994;28;19910;-81
2023/12/14 01:25:18;;;;;;;;;;;5.00;35.50;;;;;;4988842;28;19936;-81
2023/12/14 01:27:48;;;;;;;;;;;5.00;35.50;;;;;;5016642;28;19960;-81
2023/12/14 01:30:18;;;;;;;;;;;5.10;35.50;;;;;;4997524;28;19914;-81
2023/12/14 01:32:48;;;;;;;;;;;5.10;35.50;;;;;;4996367;28;19968;-81
2023/12/14 01:35:18;;;;;;;;;;;5.20;35.60;;;;;;4985409;28;19973;-81
2023/12/14 01:37:48;;;;;;;;;;;5.30;35.70;;;;;;4994968;28;19913;-81
2023/12/14 01:40:18;;;;;;;;;;;5.30;35.70;;;;;;4996910;28;19910;-81
2023/12/14 01:42:48;;;;;;;;;;;5.40;35.80;;;;;;5015512;28;20270;-81
2023/12/14 01:45:18;;;;;;;;;;;5.50;35.90;;;;;;4995768;28;19910;-81
2023/12/14 01:47:48;;;;;;;;;;;5.50;35.90;;;;;;4994479;28;19917;-81
2023/12/14 01:50:14;;;;;;;;;;;5.50;35.90;;;;;;4995504;28;19910;-81
2023/12/14 01:52:48;;;;;;;;;;;5.60;36.00;;;;;;4991215;28;19921;-81
2023/12/14 01:55:18;;;;;;;;;;;5.70;36.00;;;;;;4995039;28;19910;-81
2023/12/14 01:57:48;;;;;;;;;;;5.70;36.00;;;;;;5003385;28;19918;-81
2023/12/14 02:03:48;;;;;;;;;;;5.70;36.00;;;;;;4990822;28;20388;-81
2023/12/14 02:06:42;;;;;;;;;;;5.80;33.00;;;;;;4994851;28;19909;-76
2023/12/14 02:09:08;;;;;;;;;;;;;;;;;;4994259;28;19914;-76
2023/12/14 02:11:48;;;;;;;;;;;5.80;29.20;;;;;;4995101;28;20354;-76
2023/12/14 02:14:24;;;;;;;;;;;5.80;35.20;;;;;;4993852;28;19972;-76
2023/12/14 02:16:54;;;;;;;;;;;5.80;36.10;;;;;;5007540;28;19924;-76
2023/12/14 02:19:54;;;;;;;;;;;5.90;35.60;;;;;;5014335;28;19960;-75
2023/12/14 02:28:48;;;;;;;;;;;5.90;24.10;;;;;;4994650;28;19964;-81
2023/12/14 02:31:19;;;;;;;;;;;5.90;24.20;;;;;;4994365;28;19960;-81
2023/12/14 02:33:48;;;;;;;;;;;5.90;24.20;;;;;;5026321;28;20436;-81
2023/12/14 02:36:14;;;;;;;;;;;6.00;24.00;;;;;;4996808;28;19928;-76
2023/12/14 02:38:39;;;;;;;;;;;6.00;22.30;;;;;;4993060;28;19914;-76
2023/12/14 02:41:05;;;;;;;;;;;6.00;21.60;;;;;;4994646;28;19910;-76
2023/12/14 02:43:42;;;;;;;;;;;6.00;21.10;;;;;;5011542;28;20000;-75
2023/12/14 02:46:08;;;;;;;;;;;5.90;23.10;;;;;;4994771;28;19917;-75
2023/12/14 02:48:34;;;;;;;;;;;5.90;24.40;;;;;;4994499;28;19910;-76
2023/12/14 02:51:00;;;;;;;;;;;5.90;24.10;;;;;;4994514;28;19920;-76
2023/12/14 02:53:25;;;;;;;;;;;6.00;23.30;;;;;;4992345;28;19921;-76
2023/12/14 02:56:18;;;;;;;;;;;6.00;20.80;;;;;;5003466;28;19910;-76
2023/12/14 03:01:54;;;;;;;;;;;;;;;;;;4991405;28;20333;-75
2023/12/14 03:04:30;;;;;;;;;;;5.80;19.50;;;;;;4978605;28;19910;-76
2023/12/14 03:07:12;;;;;;;;;;;5.80;18.60;;;;;;4985699;28;19964;-82
2023/12/14 03:12:40;;;;;;;;;;;5.70;18.70;;;;;;4997755;28;19968;-80
2023/12/14 03:18:09;;;;;;;;;;;5.60;15.70;;;;;;4987601;28;20407;-81
2023/12/14 03:26:22;;;;;;;;;;;5.30;16.90;;;;;;4997543;28;20320;-81
2023/12/14 03:38:30;;;;;;;;;;;5.10;19.10;;;;;;4999110;28;20013;-81
2023/12/14 03:50:04;;;;;;;;;;;5.10;21.40;;;;;;4996945;28;19917;-81
2023/12/14 03:52:54;;;;;;;;;;;5.10;20.60;;;;;;4997435;28;20020;-76
2023/12/14 03:55:30;;;;;;;;;;;5.10;21.70;;;;;;4997096;28;19916;-76
2023/12/14 03:58:24;;;;;;;;;;;5.00;21.70;;;;;;4996320;28;19925;-75
2023/12/14 04:01:06;;;;;;;;;;;5.00;26.30;;;;;;4977710;28;19917;-76
2023/12/14 04:03:36;;;;;;;;;;;5.10;24.90;;;;;;4996698;28;19910;-76
2023/12/14 04:09:05;;;;;;;;;;;5.00;26.20;;;;;;4984525;28;20018;-81
2023/12/14 04:17:54;;;;;;;;;;;5.10;27.20;;;;;;4986389;28;19972;-81
2023/12/14 04:20:36;;;;;;;;;;;5.00;34.90;;;;;;4996629;28;19914;-81
2023/12/14 04:23:12;;;;;;;;;;;5.00;35.50;;;;;;4982618;28;20004;-76
2023/12/14 04:25:38;;;;;;;;;;;5.10;35.50;;;;;;4996440;28;20361;-76
2023/12/14 04:31:21;;;;;;;;;;;5.10;35.50;;;;;;4991573;28;19963;-76
2023/12/14 04:33:54;;;;;;;;;;;5.20;35.60;;;;;;4996934;28;20262;-76
2023/12/14 04:36:24;;;;;;;;;;;5.20;35.60;;;;;;4990785;28;19960;-76
2023/12/14 04:41:53;;;;;;;;;;;5.30;35.70;;;;;;5005135;28;19920;-80
2023/12/14 04:44:18;;;;;;;;;;;5.20;35.60;;;;;;4996999;28;19917;-81
2023/12/14 04:49:47;;;;;;;;;;;5.20;35.60;;;;;;5015763;28;19917;-81
2023/12/14 04:55:15;;;;;;;;;;;5.30;35.70;;;;;;4994849;28;20056;-81
2023/12/14 04:57:43;;;;;;;;;;;5.40;35.80;;;;;;5010359;28;20409;-80
2023/12/14 05:02:53;;;;;;;;;;;5.50;32.10;;;;;;4998082;28;19921;-80
2023/12/14 05:08:21;;;;;;;;;;;5.60;24.70;;;;;;4995988;28;19917;-83
2023/12/14 05:16:39;;;;;;;;;;;5.70;20.50;;;;;;4996041;28;19920;-85
2023/12/14 05:22:12;;;;;;;;;;;5.60;21.20;;;;;;4985643;28;19963;-79
2023/12/14 05:27:42;;;;;;;;;;;5.60;19.20;;;;;;4994937;28;19949;-79
2023/12/14 05:30:08;;;;;;;;;;;5.60;16.90;;;;;;4994813;28;19917;-78
2023/12/14 05:32:34;;;;;;;;;;;;;;;;;;4995115;28;19913;-79
2023/12/14 05:35:06;;;;;;;;;;;5.60;16.90;;;;;;4994462;28;19918;-79
2023/12/14 05:37:48;;;;;;;;;;;5.60;18.80;;;;;;5000665;28;19922;-78
2023/12/14 05:46:32;;;;;;;;;;;5.50;19.90;;;;;;5001619;28;19964;-78
2023/12/14 05:48:58;;;;;;;;;;;5.60;18.90;;;;;;4986862;28;20338;-79
2023/12/14 05:54:18;;;;;;;;;;;5.50;19.60;;;;;;4981007;28;20393;-75
2023/12/14 05:56:54;;;;;;;;;;;5.60;19.40;;;;;;4984825;28;19921;-75
2023/12/14 05:59:48;;;;;;;;;;;5.50;18.80;;;;;;4983430;28;19914;-75
2023/12/14 06:02:31;;;;;;;;;;;5.60;19.00;;;;;;4973624;28;19910;-76
2023/12/14 06:11:06;;;;;;;;;;;5.50;19.90;;;;;;4985986;28;19944;-74
2023/12/14 06:13:37;;;;;;;;;;;5.50;20.80;;;;;;4986715;28;20352;-74
2023/12/14 06:16:12;;;;;;;;;;;5.60;21.10;;;;;;4978169;28;20014;-75
2023/12/14 06:18:41;;;;;;;;;;;5.60;19.70;;;;;;4982456;28;19973;-75
2023/12/14 06:21:12;;;;;;;;;;;5.50;20.90;;;;;;4978022;28;19910;-75
2023/12/14 06:23:39;;;;;;;;;;;;;;;;;;4986443;28;20530;-74
2023/12/14 06:26:04;;;;;;;;;;;5.60;21.40;;;;;;4990699;28;19910;-75
2023/12/14 06:28:36;;;;;;;;;;;5.70;23.10;;;;;;4994250;28;19910;-74
2023/12/14 06:31:02;;;;;;;;;;;5.70;24.40;;;;;;4993588;28;19910;-75
2023/12/14 06:33:54;;;;;;;;;;;5.80;24.00;;;;;;4996539;28;19913;-74
2023/12/14 06:36:29;;;;;;;;;;;5.70;22.60;;;;;;4987368;28;19961;-74
2023/12/14 06:41:57;;;;;;;;;;;5.80;20.80;;;;;;4993219;28;20289;-77
2023/12/14 06:47:07;;;;;;;;;;;5.80;18.70;;;;;;4995513;28;19916;-76
2023/12/14 06:49:33;;;;;;;;;;;5.80;20.60;;;;;;4998199;28;20001;-79
2023/12/14 06:52:36;;;;;;;;;;;5.80;21.50;;;;;;4995782;28;19918;-77
2023/12/14 06:55:02;;;;;;;;;;;5.90;23.60;;;;;;4997896;28;19910;-74
2023/12/14 06:57:28;;;;;;;;;;;5.90;23.10;;;;;;5006858;28;19913;-74
2023/12/14 06:59:55;;;;;;;;;;;;;;;;;;4997923;28;19992;-74
2023/12/14 07:02:20;;;;;;;;;;;6.00;22.90;;;;;;5011437;28;20269;-74
2023/12/14 07:04:48;;;;;;;;;;;6.10;22.30;;;;;;4997663;28;19976;-74
2023/12/14 07:07:15;;;;;;;;;;;6.10;20.70;;;;;;4997650;28;19914;-74
2023/12/14 07:12:50;;;;;;;;;;;6.10;21.10;;;;;;4997224;28;20412;-79
2023/12/14 07:21:48;;;;;;;;;;;6.00;21.70;;;;;;4995854;28;19940;-78
2023/12/14 07:24:14;;;;;;;;;;;6.00;21.10;;;;;;4980439;28;20277;-74
2023/12/14 07:26:42;;;;;;;;;;;6.00;21.30;;;;;;4998006;28;19992;-74
2023/12/14 07:29:12;;;;;;;;;;;6.10;19.70;;;;;;4997113;28;20334;-74
2023/12/14 07:31:38;;;;;;;;;;;6.10;17.30;;;;;;5001967;28;19920;-74
2023/12/14 07:34:04;;;;;;;;;;;6.20;16.40;;;;;;5002688;28;19922;-74
2023/12/14 07:36:30;;;;;;;;;;;;;;;;;;5010932;28;19971;-73
2023/12/14 07:39:01;;;;;;;;;;;6.20;16.80;;;;;;4997521;28;19913;-74
2023/12/14 07:41:42;;;;;;;;;;;6.20;18.60;;;;;;4995836;28;20004;-74
2023/12/14 07:44:12;;;;;;;;;;;6.20;19.60;;;;;;5004335;28;19909;-74
2023/12/14 07:46:41;;;;;;;;;;;6.20;19.70;;;;;;4997184;28;19917;-74
2023/12/14 07:49:12;;;;;;;;;;;6.30;19.50;;;;;;5005799;28;19914;-74
2023/12/14 07:51:38;;;;;;;;;;;;;;;;;;5002070;28;19916;-75
2023/12/14 07:54:26;;;;;;;;;;;6.30;18.80;;;;;;5009018;28;20257;-78
2023/12/14 08:00:30;;;;;;;;;;;6.30;19.10;;;;;;4996815;28;19921;-79
2023/12/14 08:03:00;;;;;;;;;;;6.40;18.60;;;;;;5011528;28;19964;-80
2023/12/14 08:05:36;;;;;;;;;;;6.50;18.20;;;;;;4996850;28;19913;-79
2023/12/14 08:11:05;;;;;;;;;;;6.60;16.60;;;;;;4993665;28;19933;-74
2023/12/14 08:13:31;;;;;;;;;;;6.60;17.70;;;;;;4996355;28;19929;-74
2023/12/14 08:15:56;;;;;;;;;;;6.70;17.70;;;;;;4979316;28;20001;-75
2023/12/14 08:18:24;;;;;;;;;;;6.80;17.90;;;;;;4996267;28;19913;-74
2023/12/14 08:20:55;;;;;;;;;;;6.90;16.90;;;;;;4994533;28;19972;-75
2023/12/14 08:23:27;;;;;;;;;;;7.00;15.80;;;;;;4996309;28;19956;-75
2023/12/14 08:26:08;;;;;;;;;;;7.00;13.50;;;;;;4996655;28;19910;-78
2023/12/14 08:29:00;;;;;;;;;;;7.10;14.10;;;;;;4995642;28;19914;-78
2023/12/14 08:34:28;;;;;;;;;;;7.20;16.80;;;;;;4985371;28;19920;-79
2023/12/14 08:43:03;;;;;;;;;;;7.60;12.60;;;;;;4994664;28;19948;-78
2023/12/14 08:51:48;;;;;;;;;;;7.80;13.90;;;;;;4995703;28;19980;-78
2023/12/14 08:54:18;;;;;;;;;;;7.80;16.90;;;;;;4996099;28;19914;-77
2023/12/14 08:56:44;;;;;;;;;;;7.90;14.40;;;;;;4994817;28;19913;-74
2023/12/14 08:59:09;;;;;;;;;;;7.90;14.10;;;;;;5001389;28;20074;-74
2023/12/14 09:01:35;;;;;;;;;;;7.90;14.20;;;;;;4998355;28;19917;-74
2023/12/14 09:04:13;;;;;;;;;;;7.90;15.00;;;;;;4986918;28;19914;-76
2023/12/14 09:06:54;;;;;;;;;;;7.90;16.40;;;;;;4994330;28;20473;-76
2023/12/14 09:09:36;;;;;;;;;;;8.00;17.70;;;;;;4986617;28;19918;-77
2023/12/14 09:12:02;;;;;;;;;;;8.00;19.20;;;;;;4976400;28;19910;-76
2023/12/14 09:14:31;;;;;;;;;;;8.10;19.60;;;;;;4990523;28;19918;-76
2023/12/14 09:20:14;;;;;;;;;;;8.30;19.60;;;;;;4995178;28;19924;-76
2023/12/14 09:22:44;;;;;;;;;;;8.30;19.10;;;;;;4995171;28;19914;-76
2023/12/14 09:25:19;;;;;;;;;;;8.20;18.90;;;;;;4986298;28;20076;-76
2023/12/14 09:27:48;;;;;;;;;;;8.30;18.20;;;;;;4991784;28;19914;-76
2023/12/14 09:30:36;;;;;;;;;;;8.30;19.00;;;;;;4994503;28;19914;-76
2023/12/14 09:36:18;;;;;;;;;;;8.40;18.50;;;;;;4985849;28;19933;-76
2023/12/14 09:39:12;;;;;;;;;;;8.40;16.40;;;;;;4994762;28;19945;-76
2023/12/14 09:41:50;;;;;;;;;;;8.30;18.60;;;;;;5000075;28;19913;-78
2023/12/14 09:47:18;;;;;;;;;;;8.30;18.50;;;;;;4986651;28;19961;-78
2023/12/14 10:02:18;;;;;;;;;;;8.50;16.30;;;;;;5004458;28;19964;-78
2023/12/14 10:04:47;;;;;;;;;;;8.50;13.80;;;;;;4995114;28;19917;-78
2023/12/14 10:10:16;;;;;;;;;;;8.70;11.40;;;;;;4981815;28;19917;-77
2023/12/14 10:12:52;;;;;;;;;;;8.70;9.90;;;;;;4989364;28;19918;-76
2023/12/14 10:15:18;;;;;;;;;;;8.70;9.50;;;;;;4988530;28;19918;-77
2023/12/14 10:18:12;;;;;;;;;;;8.70;9.50;;;;;;4994443;28;20380;-77
2023/12/14 10:20:38;;;;;;;;;;;8.80;6.50;;;;;;4994652;28;19910;-77
2023/12/14 10:26:30;;;;;;;;;;;8.80;2.50;;;;;;4983790;28;19917;-76
2023/12/14 10:29:13;;;;;;;;;;;8.80;1.00;;;;;;5002194;28;19910;-76
2023/12/14 10:31:43;;;;;;;;;;;;;;;;;;4986305;28;19917;-76
2023/12/14 10:34:18;;;;;;;;;;;8.80;1.00;;;;;;4976608;28;20537;-76
2023/12/14 10:36:45;;;;;;;;;;;8.80;1.00;;;;;;4993912;28;19913;-76
2023/12/14 10:39:36;;;;;;;;;;;8.80;1.00;;;;;;4985803;28;20370;-76
2023/12/14 10:42:30;;;;;;;;;;;8.80;1.00;;;;;;4988271;28;19960;-78
2023/12/14 10:45:02;;;;;;;;;;;9.00;1.00;;;;;;4985047;28;19910;-79
2023/12/14 10:50:30;;;;;;;;;;;9.20;1.00;;;;;;4990393;28;19974;-79
2023/12/14 11:02:12;;;;;;;;;;;9.70;1.00;;;;;;4988944;28;19961;-79
2023/12/14 11:04:48;;;;;;;;;;;9.70;1.00;;;;;;4985213;28;19910;-79
2023/12/14 11:10:21;;;;;;;;;;;9.90;1.00;;;;;;4993725;28;19920;-79
2023/12/14 11:12:51;;;;;;;;;;;9.90;1.00;;;;;;5001237;28;19956;-74
2023/12/14 11:15:19;;;;;;;;;;;10.00;1.00;;;;;;5000283;28;19917;-76
2023/12/14 11:18:21;;;;;;;;;;;9.80;1.00;;;;;;5006541;28;19934;-76
2023/12/14 11:20:47;;;;;;;;;;;;;;;;;;4992640;28;20317;-76
2023/12/14 11:23:29;;;;;;;;;;;9.80;1.00;;;;;;4994221;28;19922;-77
2023/12/14 11:26:03;;;;;;;;;;;9.80;1.00;;;;;;4991470;28;20300;-78
2023/12/14 11:28:30;;;;;;;;;;;9.90;1.00;;;;;;4994526;28;20312;-79
2023/12/14 11:31:12;;;;;;;;;;;9.90;1.00;;;;;;4994969;28;19918;-79
2023/12/14 11:42:46;;;;;;;;;;;10.20;1.00;;;;;;4983553;28;20380;-79
2023/12/14 11:45:25;;;;;;;;;;;10.20;1.00;;;;;;4993136;28;19914;-78
2023/12/14 11:51:00;;;;;;;;;;;10.20;1.00;;;;;;4997482;28;19997;-80
2023/12/14 11:53:26;;;;;;;;;;;10.10;1.00;;;;;;4999604;28;19914;-74
2023/12/14 11:59:10;;;;;;;;;;;10.20;1.00;;;;;;4996942;28;19938;-76
2023/12/14 12:02:00;;;;;;;;;;;10.10;1.00;;;;;;5001576;28;19917;-75
2023/12/14 12:04:36;;;;;;;;;;;10.10;1.00;;;;;;5005199;28;19920;-76
2023/12/14 12:07:08;;;;;;;;;;;10.20;1.00;;;;;;4997332;28;20343;-76
2023/12/14 12:09:34;;;;;;;;;;;10.20;1.00;;;;;;4999715;28;19945;-75
2023/12/14 12:12:19;;;;;;;;;;;10.20;1.00;;;;;;4986470;28;20365;-76
2023/12/14 12:14:52;;;;;;;;;;;10.10;1.00;;;;;;5001354;28;19925;-76
2023/12/14 12:17:37;;;;;;;;;;;10.10;1.00;;;;;;5001178;28;20373;-75
2023/12/14 12:20:18;;;;;;;;;;;9.90;1.00;;;;;;5002542;28;20257;-76
2023/12/14 12:22:48;;;;;;;;;;;10.10;1.00;;;;;;4976831;28;19921;-74
2023/12/14 12:25:14;;;;;;;;;;;10.00;1.00;;;;;;5007453;28;20389;-74
2023/12/14 12:33:45;;;;;;;;;;;10.10;1.00;;;;;;5002543;28;19969;-75
2023/12/14 12:36:18;;;;;;;;;;;10.00;1.00;;;;;;4998426;28;19918;-77
2023/12/14 12:38:45;;;;;;;;;;;10.00;1.00;;;;;;4996030;28;19921;-77
2023/12/14 12:41:11;;;;;;;;;;;10.00;1.00;;;;;;4994371;28;19917;-76
2023/12/14 12:43:43;;;;;;;;;;;10.10;1.00;;;;;;4995454;28;19914;-76
2023/12/14 12:52:15;;;;;;;;;;;10.20;1.00;;;;;;4984817;28;20293;-76
2023/12/14 12:55:00;;;;;;;;;;;10.10;1.00;;;;;;4983409;28;19914;-75
2023/12/14 12:57:37;;;;;;;;;;;10.30;1.00;;;;;;5011022;28;19922;-77
2023/12/14 13:00:19;;;;;;;;;;;10.20;1.00;;;;;;4999465;28;19920;-75
2023/12/14 13:05:48;;;;;;;;;;;10.20;1.00;;;;;;4994692;28;19920;-76
2023/12/14 13:08:42;;;;;;;;;;;10.20;1.00;;;;;;5009993;28;19921;-77
2023/12/14 13:11:08;;;;;;;;;;;10.30;1.00;;;;;;4983375;28;19921;-77
2023/12/14 13:13:34;;;;;;;;;;;10.30;1.00;;;;;;4994962;28;19918;-75
2023/12/14 13:16:30;;;;;;;;;;;10.20;1.00;;;;;;4996603;28;20353;-75
2023/12/14 13:19:00;;;;;;;;;;;10.20;1.00;;;;;;4982182;28;20274;-75
2023/12/14 13:21:26;;;;;;;;;;;10.20;1.00;;;;;;4993756;28;19913;-76
2023/12/14 13:23:53;;;;;;;;;;;10.20;1.00;;;;;;4984706;28;19932;-75
2023/12/14 13:26:18;;;;;;;;;;;10.10;1.00;;;;;;4989751;28;19914;-75
2023/12/14 13:31:29;;;;;;;;;;;10.10;1.00;;;;;;5001240;28;19956;-78
2023/12/14 13:34:12;;;;;;;;;;;9.90;1.00;;;;;;5009509;28;19918;-78
2023/12/14 13:36:55;;;;;;;;;;;9.90;1.00;;;;;;4994507;28;19916;-78
2023/12/14 13:42:59;;;;;;;;;;;9.90;1.00;;;;;;5010424;28;20016;-81
2023/12/14 13:48:54;;;;;;;;;;;9.80;1.00;;;;;;4989758;28;20008;-78
2023/12/14 13:57:42;;;;;;;;;;;9.70;1.00;;;;;;4975521;28;20362;-79
2023/12/14 14:00:36;;;;;;;;;;;9.80;1.00;;;;;;4994364;28;20017;-79
2023/12/14 14:05:48;;;;;;;;;;;9.80;1.00;;;;;;4994877;28;19968;-77
2023/12/14 14:08:14;;;;;;;;;;;9.70;1.00;;;;;;5009820;28;20004;-76
2023/12/14 14:10:49;;;;;;;;;;;9.70;1.00;;;;;;4994312;28;19956;-77
2023/12/14 14:13:16;;;;;;;;;;;9.60;1.00;;;;;;4975090;28;20286;-77
2023/12/14 14:16:01;;;;;;;;;;;9.60;1.00;;;;;;4990680;28;19968;-77
2023/12/14 14:25:06;;;;;;;;;;;9.40;1.00;;;;;;4983100;28;19985;-76
2023/12/14 14:30:49;;;;;;;;;;;9.30;1.00;;;;;;4991113;28;20385;-78
2023/12/14 14:36:54;;;;;;;;;;;9.20;1.00;;;;;;4984677;28;19924;-79
2023/12/14 14:45:13;;;;;;;;;;;9.10;1.00;;;;;;4994479;28;19932;-75
2023/12/14 14:47:42;;;;;;;;;;;9.10;1.00;;;;;;4994741;28;19929;-75
2023/12/14 14:50:08;;;;;;;;;;;9.20;1.00;;;;;;4994619;28;19910;-76
2023/12/14 14:52:42;;;;;;;;;;;9.20;1.00;;;;;;4994416;28;20516;-76
2023/12/14 14:55:36;;;;;;;;;;;9.20;1.00;;;;;;4992293;28;19993;-75
2023/12/14 14:58:02;;;;;;;;;;;9.10;1.00;;;;;;5006621;28;19968;-75
2023/12/14 15:00:28;;;;;;;;;;;9.10;1.00;;;;;;5000290;28;20345;-75
2023/12/14 15:03:00;;;;;;;;;;;9.00;1.00;;;;;;5002716;28;19964;-75
2023/12/14 15:05:26;;;;;;;;;;;9.00;1.00;;;;;;4998413;28;19917;-76
2023/12/14 15:07:56;;;;;;;;;;;8.70;1.00;;;;;;4994846;28;19973;-75
2023/12/14 15:10:24;;;;;;;;;;;8.70;1.00;;;;;;4988334;28;19910;-75
2023/12/14 15:12:50;;;;;;;;;;;8.80;1.00;;;;;;4997842;28;19914;-75
2023/12/14 15:15:32;;;;;;;;;;;8.80;1.00;;;;;;4994371;28;19925;-75
2023/12/14 15:18:00;;;;;;;;;;;8.80;1.00;;;;;;4992100;28;19921;-76
2023/12/14 15:20:26;;;;;;;;;;;8.60;1.00;;;;;;4978190;28;19910;-75
2023/12/14 15:22:54;;;;;;;;;;;8.60;1.00;;;;;;4997169;28;19910;-76
2023/12/14 15:25:20;;;;;;;;;;;8.60;1.00;;;;;;4997179;28;19914;-75
2023/12/14 15:27:46;;;;;;;;;;;8.60;1.00;;;;;;4997314;28;19916;-75
2023/12/14 15:30:12;;;;;;;;;;;8.50;1.00;;;;;;4996731;28;19910;-75
2023/12/14 15:32:43;;;;;;;;;;;8.50;1.00;;;;;;4988616;28;19914;-76
2023/12/14 15:35:12;;;;;;;;;;;8.40;1.00;;;;;;4991081;28;19921;-75
2023/12/14 15:37:54;;;;;;;;;;;8.50;1.00;;;;;;4986331;28;20001;-75
2023/12/14 15:40:48;;;;;;;;;;;8.30;1.00;;;;;;4992946;28;19914;-75
2023/12/14 15:43:36;;;;;;;;;;;8.20;1.00;;;;;;4997296;28;19917;-76
2023/12/14 15:46:30;;;;;;;;;;;8.20;1.00;;;;;;4997688;28;19910;-76
2023/12/14 15:49:30;;;;;;;;;;;8.10;1.00;;;;;;4982071;28;19949;-75
2023/12/14 15:52:00;;;;;;;;;;;7.90;1.00;;;;;;4990696;28;20001;-76
2023/12/14 15:54:36;;;;;;;;;;;7.90;1.00;;;;;;4990348;28;20009;-76
2023/12/14 15:57:02;;;;;;;;;;;7.80;1.00;;;;;;4999169;28;19913;-76
2023/12/14 16:02:31;;;;;;;;;;;7.60;1.00;;;;;;5007250;28;19977;-82
2023/12/14 16:04:56;;;;;;;;;;;7.60;1.00;;;;;;5019569;28;20353;-82
2023/12/14 16:07:24;;;;;;;;;;;7.60;1.00;;;;;;5010945;28;20000;-83
2023/12/14 16:10:12;;;;;;;;;;;7.60;1.00;;;;;;4997062;28;19983;-85
2023/12/14 16:15:41;;;;;;;;;;;7.40;1.00;;;;;;4996996;28;20451;-82
2023/12/14 16:18:06;;;;;;;;;;;7.40;1.00;;;;;;4996820;28;20020;-82
2023/12/14 16:20:32;;;;;;;;;;;;;;;;;;4994223;28;19914;-80
2023/12/14 16:26:31;;;;;;;;;;;7.30;1.00;;;;;;4994685;28;19921;-79
2023/12/14 16:38:12;;;;;;;;;;;7.30;1.00;;;;;;5002775;28;19971;-80
2023/12/14 16:46:54;;;;;;;;;;;7.30;1.00;;;;;;4983553;28;19952;-78
2023/12/14 16:49:48;;;;;;;;;;;7.30;1.00;;;;;;4989512;28;20361;-77
2023/12/14 17:01:07;;;;;;;;;;;7.30;1.00;;;;;;5015236;28;19915;-77
2023/12/14 17:03:36;;;;;;;;;;;7.30;1.00;;;;;;4995802;28;19914;-77
2023/12/14 17:06:13;;;;;;;;;;;;;;;;;;5000256;28;19913;-77
2023/12/14 17:08:43;;;;;;;;;;;7.20;1.00;;;;;;5003871;28;19910;-76
2023/12/14 17:14:12;;;;;;;;;;;7.30;1.00;;;;;;4990253;28;19945;-84
2023/12/14 17:16:38;;;;;;;;;;;7.30;1.00;;;;;;5009232;28;19918;-82
2023/12/14 17:19:04;;;;;;;;;;;7.20;1.00;;;;;;4995411;28;19960;-83
2023/12/14 17:21:30;;;;;;;;;;;7.20;1.00;;;;;;4996902;28;19957;-81
2023/12/14 17:27:30;;;;;;;;;;;7.20;1.00;;;;;;5001824;28;19967;-75
2023/12/14 17:30:18;;;;;;;;;;;7.20;1.00;;;;;;4984802;28;19922;-77
2023/12/14 17:32:44;;;;;;;;;;;7.20;1.00;;;;;;4992861;28;20338;-76
2023/12/14 17:35:30;;;;;;;;;;;7.20;1.00;;;;;;4995205;28;19928;-76
2023/12/14 17:38:24;;;;;;;;;;;7.10;1.00;;;;;;5000306;28;19914;-75
2023/12/14 17:41:14;;;;;;;;;;;7.10;1.00;;;;;;4983884;28;19917;-77
2023/12/14 17:46:38;;;;;;;;;;;7.10;1.00;;;;;;4994165;28;19914;-77
2023/12/14 17:49:08;;;;;;;;;;;7.00;1.00;;;;;;4994130;28;19920;-78
2023/12/14 17:54:13;;;;;;;;;;;7.10;1.00;;;;;;4996862;28;19945;-74
2023/12/14 17:56:49;;;;;;;;;;;7.10;1.00;;;;;;4991863;28;19943;-75
2023/12/14 17:59:14;;;;;;;;;;;7.20;1.00;;;;;;4986526;28;20269;-75
2023/12/14 18:01:56;;;;;;;;;;;7.20;1.00;;;;;;4995024;28;19914;-75
2023/12/14 18:04:38;;;;;;;;;;;7.10;1.00;;;;;;4992445;28;20045;-76
2023/12/14 18:07:14;;;;;;;;;;;7.00;1.00;;;;;;4993618;28;19953;-76
2023/12/14 18:12:42;;;;;;;;;;;7.10;1.00;;;;;;4991715;28;19957;-77
2023/12/14 18:15:08;;;;;;;;;;;7.00;1.00;;;;;;4984643;28;19914;-76
2023/12/14 18:18:07;;;;;;;;;;;7.00;1.00;;;;;;4992115;28;20328;-80
2023/12/14 18:29:51;;;;;;;;;;;6.90;1.00;;;;;;4992438;28;20451;-82
2023/12/14 18:39:01;;;;;;;;;;;6.80;1.00;;;;;;4998434;28;20048;-84
2023/12/14 18:53:39;;;;;;;;;;;6.80;1.00;;;;;;4998246;28;20344;-83
2023/12/14 18:56:30;;;;;;;;;;;6.80;1.00;;;;;;5013101;28;19910;-82
2023/12/14 19:01:59;;;;;;;;;;;6.80;1.00;;;;;;4986136;28;20375;-86
2023/12/14 19:04:45;;;;;;;;;;;6.80;1.00;;;;;;4981047;28;19910;-86
2023/12/14 19:13:17;;;;;;;;;;;6.70;1.00;;;;;;4998130;28;20375;-87
2023/12/14 19:22:01;;;;;;;;;;;6.80;1.00;;;;;;4959361;29;20466;-89
2023/12/14 19:30:33;;;;;;;;;;;6.90;1.00;;;;;;4979965;28;20000;-88
2023/12/14 19:36:02;;;;;;;;;;;7.00;1.00;;;;;;4959128;28;19930;-89
2023/12/14 19:38:31;;;;;;;;;;;7.00;1.00;;;;;;4980178;28;20277;-86
2023/12/14 19:41:24;;;;;;;;;;;6.90;1.00;;;;;;4978769;28;19910;-90
2023/12/14 19:43:50;;;;;;;;;;;6.90;1.00;;;;;;4973634;28;19914;-75
2023/12/14 19:46:32;;;;;;;;;;;6.80;1.00;;;;;;4969018;28;19910;-75
2023/12/14 19:49:13;;;;;;;;;;;6.70;1.00;;;;;;4978542;28;20337;-75
2023/12/14 19:51:38;;;;;;;;;;;6.70;1.00;;;;;;4980917;28;19918;-75
2023/12/14 19:54:04;;;;;;;;;;;6.80;1.00;;;;;;4991434;28;20396;-75
2023/12/14 19:56:30;;;;;;;;;;;6.70;1.00;;;;;;4989942;28;20378;-75
2023/12/14 19:59:01;;;;;;;;;;;6.70;1.00;;;;;;4976141;28;19972;-75
2023/12/14 20:01:30;;;;;;;;;;;6.80;1.00;;;;;;4977227;28;20385;-75
2023/12/14 20:04:01;;;;;;;;;;;6.80;1.00;;;;;;4981120;28;19956;-74
2023/12/14 20:06:26;;;;;;;;;;;6.80;1.00;;;;;;4978112;28;19911;-75
2023/12/14 20:08:55;;;;;;;;;;;6.80;1.00;;;;;;4980357;28;19922;-75
2023/12/14 20:11:31;;;;;;;;;;;6.80;1.00;;;;;;4977370;28;20322;-74
2023/12/14 20:13:57;;;;;;;;;;;6.90;1.00;;;;;;4977227;28;20389;-75
2023/12/14 20:16:37;;;;;;;;;;;6.80;1.00;;;;;;4977106;28;19917;-75
2023/12/14 20:22:07;;;;;;;;;;;6.90;1.00;;;;;;5007798;28;20292;-81
2023/12/14 20:24:33;;;;;;;;;;;6.80;1.00;;;;;;5007187;28;20278;-81
2023/12/14 20:30:04;;;;;;;;;;;6.80;1.00;;;;;;4993643;28;20282;-81
2023/12/14 20:32:29;;;;;;;;;;;6.80;1.00;;;;;;4996381;28;19925;-81
2023/12/14 20:35:13;;;;;;;;;;;6.80;1.00;;;;;;4998043;28;19913;-81
2023/12/14 20:37:55;;;;;;;;;;;6.80;1.00;;;;;;4986258;28;19914;-81
2023/12/14 20:40:20;;;;;;;;;;;6.70;1.00;;;;;;4993560;28;19917;-81
2023/12/14 20:45:49;;;;;;;;;;;6.60;1.00;;;;;;4996041;28;20060;-82
2023/12/14 20:48:48;;;;;;;;;;;6.50;1.00;;;;;;4995933;28;20377;-81
2023/12/14 20:51:21;;;;;;;;;;;6.50;1.00;;;;;;5002104;28;19910;-75
2023/12/14 20:53:47;;;;;;;;;;;6.50;1.00;;;;;;4995291;28;19914;-75
2023/12/14 20:56:13;;;;;;;;;;;6.50;1.00;;;;;;4990420;28;20389;-75
2023/12/14 20:58:39;;;;;;;;;;;6.30;1.00;;;;;;4985088;28;19918;-75
2023/12/14 21:01:05;;;;;;;;;;;6.30;1.00;;;;;;5003403;28;19914;-75
2023/12/14 21:03:39;;;;;;;;;;;6.30;1.00;;;;;;4984456;28;19936;-75
2023/12/14 21:06:05;;;;;;;;;;;6.20;1.00;;;;;;4996166;28;19914;-74
2023/12/14 21:08:31;;;;;;;;;;;6.30;1.00;;;;;;4995598;28;19914;-75
2023/12/14 21:10:57;;;;;;;;;;;6.20;1.00;;;;;;4999857;28;19957;-75
2023/12/14 21:13:25;;;;;;;;;;;6.20;1.00;;;;;;4995406;28;19992;-75
2023/12/14 21:16:01;;;;;;;;;;;6.20;1.00;;;;;;5000648;28;19918;-75
2023/12/14 21:18:45;;;;;;;;;;;6.10;1.00;;;;;;4999670;28;20026;-75
2023/12/14 21:21:13;;;;;;;;;;;6.10;1.00;;;;;;4986835;28;19921;-75